createdAt,value
2022-12-12T00:00:43.971Z,99233.81
2022-12-12T00:03:11.441Z,99235.63
2022-12-12T00:05:39.005Z,99233.00
2022-12-12T00:08:06.409Z,99232.19
2022-12-12T00:10:34.974Z,99238.38
2022-12-12T00:13:02.625Z,99235.75
2022-12-12T00:15:29.714Z,99233.28
2022-12-12T00:17:56.675Z,99243.78
2022-12-12T00:20:23.653Z,99236.84
2022-12-12T00:22:50.660Z,99236.16
2022-12-12T00:25:17.741Z,99238.94
2022-12-12T00:27:44.777Z,99246.78
2022-12-12T00:30:12.250Z,99237.41
2022-12-12T00:32:39.188Z,99242.66
2022-12-12T00:35:06.862Z,99233.13
2022-12-12T00:37:33.914Z,99233.25
2022-12-12T00:40:01.016Z,99233.41
2022-12-12T00:42:28.486Z,99236.28
2022-12-12T00:44:55.487Z,99228.69
2022-12-12T00:47:22.492Z,99229.66
2022-12-12T00:49:49.470Z,99233.25
2022-12-12T00:52:16.663Z,99233.50
2022-12-12T00:54:43.596Z,99230.34
2022-12-12T00:57:10.540Z,99237.63
2022-12-12T00:59:37.489Z,99231.03
2022-12-12T01:02:04.626Z,99236.53
2022-12-12T01:04:31.656Z,99235.97
2022-12-12T01:06:58.606Z,99229.34
2022-12-12T01:09:25.795Z,99233.19
2022-12-12T01:11:52.738Z,99242.28
2022-12-12T01:14:19.698Z,99246.94
2022-12-12T01:16:46.670Z,99239.50
2022-12-12T01:19:13.813Z,99245.00
2022-12-12T01:21:40.752Z,99248.00
2022-12-12T01:24:07.770Z,99253.50
2022-12-12T01:26:34.752Z,99253.75
2022-12-12T01:29:02.191Z,99252.38
2022-12-12T01:31:29.177Z,99258.00
2022-12-12T01:33:56.266Z,99256.47
2022-12-12T01:36:24.035Z,99257.00
2022-12-12T01:38:54.257Z,99256.31
2022-12-12T01:41:21.537Z,99260.97
2022-12-12T01:43:49.658Z,99256.94
2022-12-12T01:46:33.117Z,99267.66
2022-12-12T01:49:26.177Z,99268.88
2022-12-12T01:51:58.767Z,99268.31
2022-12-12T01:54:34.220Z,99272.00
2022-12-12T01:57:07.138Z,99269.53
2022-12-12T01:59:35.379Z,99270.47
2022-12-12T02:02:02.681Z,99273.22
2022-12-12T02:04:29.764Z,99275.16
2022-12-12T02:06:57.640Z,99270.03
2022-12-12T02:09:25.993Z,99265.75
2022-12-12T02:11:57.038Z,99266.72
2022-12-12T02:14:39.322Z,99273.75
2022-12-12T02:17:42.947Z,99273.88
2022-12-12T02:20:40.567Z,99267.91
2022-12-12T02:24:02.575Z,99273.16
2022-12-12T02:27:16.814Z,99268.88
2022-12-12T02:30:07.508Z,99265.56
2022-12-12T02:33:14.726Z,99282.22
2022-12-12T02:35:51.550Z,99275.34
2022-12-12T02:38:51.438Z,99272.00
2022-12-12T02:41:42.473Z,99277.38
2022-12-12T02:44:26.592Z,99271.59
2022-12-12T02:47:15.722Z,99269.06
2022-12-12T02:50:06.296Z,99271.13
2022-12-12T02:52:34.226Z,99272.91
2022-12-12T02:55:01.158Z,99268.75
2022-12-12T02:57:28.574Z,99269.00
2022-12-12T03:00:08.332Z,99258.78
2022-12-12T03:03:21.390Z,99262.38
2022-12-12T03:06:42.287Z,99264.28
2022-12-12T03:09:30.742Z,99266.31
2022-12-12T03:12:06.150Z,99267.28
2022-12-12T03:15:08.547Z,99259.56
2022-12-12T03:17:54.596Z,99267.53
2022-12-12T03:20:43.227Z,99258.16
2022-12-12T03:23:16.262Z,99266.84
2022-12-12T03:26:02.101Z,99268.59
2022-12-12T03:28:43.900Z,99269.47
2022-12-12T03:31:13.000Z,99265.16
2022-12-12T03:33:53.092Z,99260.06
2022-12-12T03:36:32.476Z,99263.63
2022-12-12T03:39:13.393Z,99261.03
2022-12-12T03:41:50.235Z,99261.28
2022-12-12T03:44:25.136Z,99252.59
2022-12-12T03:47:05.640Z,99251.75
2022-12-12T03:49:48.632Z,99257.81
2022-12-12T03:52:30.448Z,99251.91
2022-12-12T03:55:08.406Z,99258.91
2022-12-12T03:57:45.773Z,99252.84
2022-12-12T04:00:15.143Z,99257.25
2022-12-12T04:03:15.567Z,99252.84
2022-12-12T04:06:22.002Z,99257.25
2022-12-12T04:09:08.205Z,99266.75
2022-12-12T04:12:01.368Z,99266.75
2022-12-12T04:14:53.192Z,99269.34
2022-12-12T04:17:37.629Z,99269.34
2022-12-12T04:20:42.516Z,99268.53
2022-12-12T04:23:41.766Z,99279.81
2022-12-12T04:26:39.969Z,99277.19
2022-12-12T04:29:11.880Z,99282.41
2022-12-12T04:32:03.436Z,99280.63
2022-12-12T04:34:44.244Z,99290.25
2022-12-12T04:37:18.484Z,99291.91
2022-12-12T04:39:51.078Z,99288.34
2022-12-12T04:42:23.746Z,99293.56
2022-12-12T04:44:54.275Z,99296.19
2022-12-12T04:47:23.758Z,99299.53
2022-12-12T04:49:52.467Z,99291.69
2022-12-12T04:52:21.285Z,99297.75
2022-12-12T04:55:05.540Z,99300.22
2022-12-12T04:58:02.200Z,99297.47
2022-12-12T05:00:43.995Z,99299.13
2022-12-12T05:03:20.074Z,99306.88
2022-12-12T05:06:11.608Z,99311.13
2022-12-12T05:08:45.942Z,99308.41
2022-12-12T05:11:13.898Z,99310.88
2022-12-12T05:13:43.066Z,99313.50
2022-12-12T05:16:37.702Z,99320.38
2022-12-12T05:19:05.142Z,99315.88
2022-12-12T05:21:32.198Z,99320.28
2022-12-12T05:23:59.130Z,99327.03
2022-12-12T05:26:29.685Z,99322.75
2022-12-12T05:28:59.926Z,99320.97
2022-12-12T05:31:30.697Z,99327.03
2022-12-12T05:33:57.791Z,99320.84
2022-12-12T05:36:24.765Z,99325.22
2022-12-12T05:38:51.693Z,99338.31
2022-12-12T05:41:18.648Z,99327.03
2022-12-12T05:43:45.581Z,99324.53
2022-12-12T05:46:12.632Z,99320.13
2022-12-12T05:48:39.677Z,99335.81
2022-12-12T05:51:06.652Z,99322.75
2022-12-12T05:53:42.065Z,99322.75
2022-12-12T05:56:11.342Z,99325.38
2022-12-12T05:58:40.467Z,99314.91
2022-12-12T06:01:08.340Z,99318.34
2022-12-12T06:03:35.860Z,99324.41
2022-12-12T06:06:03.831Z,99327.03
2022-12-12T06:08:30.867Z,99321.78
2022-12-12T06:10:57.864Z,99326.06
2022-12-12T06:13:24.843Z,99332.13
2022-12-12T06:15:51.812Z,99339.13
2022-12-12T06:18:18.958Z,99341.75
2022-12-12T06:20:45.929Z,99338.31
2022-12-12T06:23:12.972Z,99340.78
2022-12-12T06:25:40.006Z,99331.28
2022-12-12T06:28:07.254Z,99336.50
2022-12-12T06:30:34.496Z,99345.31
2022-12-12T06:33:01.527Z,99346.97
2022-12-12T06:35:28.498Z,99354.81
2022-12-12T06:37:55.444Z,99353.16
2022-12-12T06:40:22.394Z,99355.78
2022-12-12T06:42:49.416Z,99351.50
2022-12-12T06:45:17.185Z,99352.47
2022-12-12T06:47:44.302Z,99349.84
2022-12-12T06:50:11.800Z,99366.50
2022-12-12T06:52:38.785Z,99369.09
2022-12-12T06:55:06.380Z,99369.09
2022-12-12T06:57:36.163Z,99361.34
2022-12-12T07:00:06.411Z,99364.09
2022-12-12T07:02:33.397Z,99375.38
2022-12-12T07:05:00.499Z,99385.00
2022-12-12T07:07:27.418Z,99385.13
2022-12-12T07:09:54.333Z,99387.75
2022-12-12T07:12:21.293Z,99384.19
2022-12-12T07:14:48.255Z,99383.34
2022-12-12T07:17:15.200Z,99389.41
2022-12-12T07:19:42.295Z,99385.13
2022-12-12T07:22:10.385Z,99387.75
2022-12-12T07:24:38.046Z,99390.50
2022-12-12T07:27:06.351Z,99400.00
2022-12-12T07:29:33.735Z,99408.66
2022-12-12T07:32:00.770Z,99400.81
2022-12-12T07:34:29.895Z,99414.72
2022-12-12T07:37:02.529Z,99415.66
2022-12-12T07:39:32.557Z,99420.91
2022-12-12T07:41:59.799Z,99426.97
2022-12-12T07:44:26.880Z,99428.63
2022-12-12T07:46:53.915Z,99431.34
2022-12-12T07:49:20.864Z,99425.16
2022-12-12T07:51:49.359Z,99429.44
2022-12-12T07:54:17.161Z,99424.22
2022-12-12T07:56:44.139Z,99430.41
2022-12-12T07:59:11.918Z,99433.84
2022-12-12T08:01:39.679Z,99433.00
2022-12-12T08:04:06.702Z,99427.78
2022-12-12T08:06:33.750Z,99435.63
2022-12-12T08:09:00.687Z,99436.47
2022-12-12T08:11:27.825Z,99432.88
2022-12-12T08:13:54.977Z,99438.81
2022-12-12T08:16:27.851Z,99436.19
2022-12-12T08:18:57.526Z,99432.66
2022-12-12T08:21:26.799Z,99447.25
2022-12-12T08:24:02.170Z,99446.28
2022-12-12T08:26:30.718Z,99452.22
2022-12-12T08:28:58.662Z,99446.78
2022-12-12T08:31:26.186Z,99444.84
2022-12-12T08:33:53.656Z,99454.34
2022-12-12T08:36:24.534Z,99451.38
2022-12-12T08:38:52.402Z,99454.81
2022-12-12T08:41:20.022Z,99454.59
2022-12-12T08:43:47.438Z,99457.91
2022-12-12T08:46:18.036Z,99452.69
2022-12-12T08:48:46.465Z,99463.00
2022-12-12T08:51:14.752Z,99460.28
2022-12-12T08:53:45.708Z,99458.38
2022-12-12T08:56:13.485Z,99462.53
2022-12-12T08:58:40.741Z,99462.41
2022-12-12T09:01:21.453Z,99456.09
2022-12-12T09:03:49.010Z,99465.47
2022-12-12T09:06:17.131Z,99460.94
2022-12-12T09:08:46.178Z,99466.91
2022-12-12T09:11:14.082Z,99471.06
2022-12-12T09:13:41.530Z,99468.31
2022-12-12T09:16:10.904Z,99468.91
2022-12-12T09:18:44.606Z,99469.72
2022-12-12T09:21:15.030Z,99479.94
2022-12-12T09:23:42.050Z,99486.81
2022-12-12T09:26:10.237Z,99482.31
2022-12-12T09:28:37.660Z,99483.00
2022-12-12T09:31:10.219Z,99488.84
2022-12-12T09:33:38.093Z,99485.13
2022-12-12T09:36:07.889Z,99479.66
2022-12-12T09:38:35.533Z,99472.53
2022-12-12T09:41:10.332Z,99475.69
2022-12-12T09:44:06.274Z,99477.94
2022-12-12T09:46:47.107Z,99481.25
2022-12-12T09:49:47.735Z,99479.47
2022-12-12T09:52:31.291Z,99472.59
2022-12-12T09:55:17.149Z,99473.56
2022-12-12T09:57:56.279Z,99469.16
2022-12-12T10:00:23.314Z,99471.06
2022-12-12T10:03:19.175Z,99473.69
2022-12-12T10:09:33.940Z,99467.75
2022-12-12T10:12:08.002Z,99465.00
2022-12-12T10:14:52.745Z,99464.59
2022-12-12T10:17:37.301Z,99461.47
2022-12-12T10:20:32.492Z,99473.94
2022-12-12T10:23:15.806Z,99463.78
2022-12-12T10:25:56.374Z,99465.78
2022-12-12T10:28:30.938Z,99468.84
2022-12-12T10:31:25.631Z,99472.50
2022-12-12T10:34:15.767Z,99475.31
2022-12-12T10:37:22.987Z,99472.88
2022-12-12T10:40:14.165Z,99471.16
2022-12-12T10:43:14.815Z,99468.69
2022-12-12T10:46:09.545Z,99462.78
2022-12-12T10:48:36.782Z,99463.09
2022-12-12T10:51:07.977Z,99460.66
2022-12-12T10:53:35.365Z,99457.34
2022-12-12T10:56:07.708Z,99459.31
2022-12-12T10:58:51.222Z,99455.22
2022-12-12T11:01:38.383Z,99454.81
2022-12-12T11:04:08.953Z,99460.19
2022-12-12T11:06:51.556Z,99458.84
2022-12-12T11:09:28.305Z,99463.41
2022-12-12T11:12:04.400Z,99458.44
2022-12-12T11:14:52.045Z,99456.09
2022-12-12T11:17:25.773Z,99454.75
2022-12-12T11:19:57.230Z,99449.78
2022-12-12T11:22:25.919Z,99440.66
2022-12-12T11:24:54.529Z,99440.13
2022-12-12T11:27:31.285Z,99444.81
2022-12-12T11:30:06.055Z,99445.09
2022-12-12T11:32:44.531Z,99442.88
2022-12-12T11:35:45.723Z,99450.06
2022-12-12T11:38:22.177Z,99446.88
2022-12-12T11:41:05.760Z,99444.81
2022-12-12T11:43:37.847Z,99442.84
2022-12-12T11:46:16.041Z,99431.38
2022-12-12T11:48:51.619Z,99433.44
2022-12-12T11:51:40.877Z,99434.97
2022-12-12T11:54:34.621Z,99437.16
2022-12-12T11:57:15.073Z,99430.97
2022-12-12T12:00:11.406Z,99425.81
2022-12-12T12:03:09.046Z,99430.78
2022-12-12T12:06:35.824Z,99423.97
2022-12-12T12:09:41.368Z,99429.78
2022-12-12T12:12:20.997Z,99428.66
2022-12-12T12:14:57.042Z,99427.69
2022-12-12T12:17:32.559Z,99432.53
2022-12-12T12:20:33.595Z,99425.47
2022-12-12T12:23:42.530Z,99424.38
2022-12-12T12:26:52.677Z,99425.19
2022-12-12T12:30:16.135Z,99423.66
2022-12-12T12:33:26.165Z,99423.16
2022-12-12T12:36:20.855Z,99420.78
2022-12-12T12:39:24.111Z,99423.03
2022-12-12T12:42:26.136Z,99431.03
2022-12-12T12:45:15.511Z,99423.47
2022-12-12T12:47:53.609Z,99419.44
2022-12-12T12:50:34.494Z,99406.59
2022-12-12T12:53:59.150Z,99398.88
2022-12-12T12:56:34.005Z,99395.97
2022-12-12T12:59:14.983Z,99392.78
2022-12-12T13:01:46.567Z,99396.81
2022-12-12T13:04:41.844Z,99405.09
2022-12-12T13:07:49.790Z,99399.47
2022-12-12T13:10:28.061Z,99396.72
2022-12-12T13:13:14.912Z,99405.16
2022-12-12T13:15:58.649Z,99400.31
2022-12-12T13:18:37.059Z,99396.31
2022-12-12T13:21:35.632Z,99403.66
2022-12-12T13:24:12.598Z,99407.50
2022-12-12T13:27:03.205Z,99405.44
2022-12-12T13:29:50.702Z,99398.69
2022-12-12T13:32:50.535Z,99394.50
2022-12-12T13:35:51.096Z,99392.31
2022-12-12T13:38:29.855Z,99388.16
2022-12-12T13:40:59.197Z,99384.31
2022-12-12T13:43:34.330Z,99388.75
2022-12-12T13:46:23.309Z,99392.88
2022-12-12T13:49:24.299Z,99389.25
2022-12-12T13:51:51.430Z,99385.81
2022-12-12T13:54:18.248Z,99390.66
2022-12-12T13:56:57.249Z,99390.88
2022-12-12T13:59:26.684Z,99379.09
2022-12-12T14:02:02.105Z,99381.00
2022-12-12T14:04:41.525Z,99379.72
2022-12-12T14:07:21.676Z,99384.78
2022-12-12T14:09:52.660Z,99377.97
2022-12-12T14:12:33.477Z,99375.75
2022-12-12T14:15:18.341Z,99377.41
2022-12-12T14:17:55.718Z,99374.94
2022-12-12T14:20:33.966Z,99377.31
2022-12-12T14:23:12.670Z,99380.22
2022-12-12T14:25:41.523Z,99378.31
2022-12-12T14:28:30.802Z,99367.53
2022-12-12T14:31:16.948Z,99367.44
2022-12-12T14:33:59.753Z,99371.63
2022-12-12T14:37:00.803Z,99364.31
2022-12-12T14:40:00.889Z,99370.94
2022-12-12T14:43:19.939Z,99372.34
2022-12-12T14:45:53.692Z,99380.66
2022-12-12T14:48:28.093Z,99387.31
2022-12-12T14:51:34.595Z,99391.19
2022-12-12T14:54:03.988Z,99397.00
2022-12-12T14:56:53.015Z,99385.97
2022-12-12T14:59:39.105Z,99386.22
2022-12-12T15:02:38.923Z,99384.16
2022-12-12T15:05:08.204Z,99379.59
2022-12-12T15:07:40.832Z,99375.72
2022-12-12T15:10:27.438Z,99384.00
2022-12-12T15:12:54.504Z,99388.16
2022-12-12T15:15:32.013Z,99388.75
2022-12-12T15:18:00.882Z,99389.28
2022-12-12T15:20:32.333Z,99386.25
2022-12-12T15:23:02.855Z,99380.56
2022-12-12T15:25:55.196Z,99379.31
2022-12-12T15:28:24.826Z,99370.19
2022-12-12T15:30:53.519Z,99362.88
2022-12-12T15:33:26.978Z,99359.84
2022-12-12T15:36:02.177Z,99354.19
2022-12-12T15:38:30.062Z,99353.88
2022-12-12T15:41:06.634Z,99355.25
2022-12-12T15:43:38.837Z,99355.78
2022-12-12T15:46:16.102Z,99355.34
2022-12-12T15:48:45.174Z,99360.31
2022-12-12T15:51:14.898Z,99366.78
2022-12-12T15:53:52.337Z,99374.22
2022-12-12T15:56:25.107Z,99366.06
2022-12-12T15:59:21.212Z,99365.50
2022-12-12T16:01:48.240Z,99374.72
2022-12-12T16:04:15.114Z,99383.78
2022-12-12T16:06:48.261Z,99384.06
2022-12-12T16:09:22.452Z,99389.56
2022-12-12T16:11:52.919Z,99385.56
2022-12-12T16:14:24.667Z,99378.91
2022-12-12T16:17:20.772Z,99379.19
2022-12-12T16:19:53.763Z,99373.38
2022-12-12T16:22:47.119Z,99366.84
2022-12-12T16:25:32.392Z,99371.53
2022-12-12T16:28:08.416Z,99377.03
2022-12-12T16:30:37.448Z,99376.47
2022-12-12T16:33:30.724Z,99379.19
2022-12-12T16:36:00.703Z,99389.25
2022-12-12T16:38:29.637Z,99385.06
2022-12-12T16:41:00.992Z,99392.22
2022-12-12T16:43:28.538Z,99389.84
2022-12-12T16:45:56.934Z,99397.00
2022-12-12T16:48:36.748Z,99391.78
2022-12-12T16:51:09.164Z,99392.03
2022-12-12T16:53:36.983Z,99391.31
2022-12-12T16:56:04.739Z,99395.88
2022-12-12T16:58:32.672Z,99395.16
2022-12-12T17:01:01.584Z,99394.47
2022-12-12T17:03:29.898Z,99393.63
2022-12-12T17:05:56.844Z,99398.16
2022-12-12T17:08:23.851Z,99400.91
2022-12-12T17:11:10.094Z,99401.03
2022-12-12T17:13:46.095Z,99400.22
2022-12-12T17:16:13.386Z,99396.88
2022-12-12T17:18:40.406Z,99405.69
2022-12-12T17:21:07.376Z,99404.84
2022-12-12T17:23:34.326Z,99406.66
2022-12-12T17:26:04.771Z,99406.66
2022-12-12T17:28:33.961Z,99399.91
2022-12-12T17:31:01.334Z,99404.28
2022-12-12T17:33:28.731Z,99407.84
2022-12-12T17:36:05.482Z,99408.66
2022-12-12T17:38:33.620Z,99406.91
2022-12-12T17:41:08.886Z,99401.78
2022-12-12T17:43:37.430Z,99400.13
2022-12-12T17:46:14.225Z,99392.41
2022-12-12T17:48:46.542Z,99390.75
2022-12-12T17:51:17.797Z,99402.19
2022-12-12T17:53:44.783Z,99386.59
2022-12-12T17:56:18.111Z,99393.59
2022-12-12T17:58:47.610Z,99394.56
2022-12-12T18:01:21.676Z,99393.88
2022-12-12T18:03:49.503Z,99391.25
2022-12-12T18:06:18.669Z,99383.53
2022-12-12T18:08:46.883Z,99379.38
2022-12-12T18:11:19.139Z,99376.06
2022-12-12T18:13:50.250Z,99382.25
2022-12-12T18:16:18.277Z,99376.28
2022-12-12T18:18:45.474Z,99385.94
2022-12-12T18:21:42.904Z,99386.06
2022-12-12T18:24:04.274Z,99386.06
2022-12-12T18:26:31.345Z,99396.53
2022-12-12T18:29:06.934Z,99377.66
2022-12-12T18:31:35.014Z,99390.72
2022-12-12T18:34:02.303Z,99389.03
2022-12-12T18:36:30.865Z,99395.38
2022-12-12T18:39:01.776Z,99390.13
2022-12-12T18:41:28.968Z,99391.09
2022-12-12T18:43:56.093Z,99389.44
2022-12-12T18:46:27.686Z,99390.41
2022-12-12T18:48:54.627Z,99387.88
2022-12-12T18:51:25.033Z,99388.00
2022-12-12T18:53:54.481Z,99389.94
2022-12-12T18:56:25.684Z,99390.88
2022-12-12T18:58:54.317Z,99382.31
2022-12-12T19:01:25.827Z,99388.50
2022-12-12T19:03:56.656Z,99393.75
2022-12-12T19:06:33.841Z,99386.03
2022-12-12T19:09:17.504Z,99394.00
2022-12-12T19:11:45.626Z,99394.00
2022-12-12T19:14:15.065Z,99385.47
2022-12-12T19:16:43.961Z,99394.22
2022-12-12T19:19:12.041Z,99396.16
2022-12-12T19:21:40.780Z,99402.34
2022-12-12T19:24:09.254Z,99398.88
2022-12-12T19:26:37.250Z,99392.84
2022-12-12T19:29:11.977Z,99392.97
2022-12-12T19:31:39.227Z,99392.22
2022-12-12T19:34:07.948Z,99395.81
2022-12-12T19:36:35.882Z,99400.22
2022-12-12T19:39:06.138Z,99397.72
2022-12-12T19:41:33.959Z,99398.69
2022-12-12T19:44:02.726Z,99395.25
2022-12-12T19:46:31.524Z,99393.56
2022-12-12T19:49:01.939Z,99394.50
2022-12-12T19:51:35.958Z,99399.03
2022-12-12T19:54:08.292Z,99396.41
2022-12-12T19:56:38.618Z,99387.06
2022-12-12T19:59:05.897Z,99396.66
2022-12-12T20:01:35.946Z,99389.91
2022-12-12T20:04:22.125Z,99389.91
2022-12-12T20:06:50.334Z,99394.56
2022-12-12T20:09:27.580Z,99393.00
2022-12-12T20:11:56.787Z,99395.75
2022-12-12T20:14:31.461Z,99392.28
2022-12-12T20:16:59.892Z,99400.25
2022-12-12T20:19:27.835Z,99398.59
2022-12-12T20:22:03.820Z,99395.25
2022-12-12T20:24:33.587Z,99404.06
2022-12-12T20:27:05.670Z,99401.56
2022-12-12T20:29:32.921Z,99396.47
2022-12-12T20:32:01.203Z,99400.88
2022-12-12T20:34:28.931Z,99399.19
2022-12-12T20:36:56.277Z,99401.09
2022-12-12T20:39:24.810Z,99402.06
2022-12-12T20:41:53.568Z,99398.59
2022-12-12T20:44:23.198Z,99397.91
2022-12-12T20:46:50.164Z,99392.91
2022-12-12T20:49:19.723Z,99391.25
2022-12-12T20:51:56.391Z,99394.00
2022-12-12T20:54:26.117Z,99394.09
2022-12-12T20:56:55.817Z,99395.16
2022-12-12T20:59:23.621Z,99389.25
2022-12-12T21:01:51.019Z,99383.28
2022-12-12T21:04:18.292Z,99378.19
2022-12-12T21:06:49.701Z,99387.94
2022-12-12T21:09:23.813Z,99384.63
2022-12-12T21:11:54.868Z,99389.84
2022-12-12T21:14:22.390Z,99387.47
2022-12-12T21:16:49.649Z,99383.19
2022-12-12T21:19:18.691Z,99384.38
2022-12-12T21:21:46.488Z,99380.09
2022-12-12T21:24:16.652Z,99380.22
2022-12-12T21:26:44.499Z,99381.31
2022-12-12T21:29:11.509Z,99384.84
2022-12-12T21:31:48.129Z,99379.75
2022-12-12T21:34:18.887Z,99378.22
2022-12-12T21:36:45.892Z,99369.69
2022-12-12T21:39:13.502Z,99372.38
2022-12-12T21:41:43.656Z,99372.50
2022-12-12T21:44:10.711Z,99365.75
2022-12-12T21:46:41.593Z,99364.19
2022-12-12T21:49:41.178Z,99365.16
2022-12-12T21:52:13.757Z,99368.00
2022-12-12T21:54:40.735Z,99361.22
2022-12-12T21:57:08.001Z,99362.19
2022-12-12T21:59:38.590Z,99361.59
2022-12-12T22:02:07.011Z,99354.72
2022-12-12T22:04:34.096Z,99360.88
2022-12-12T22:07:01.041Z,99352.34
2022-12-12T22:09:28.104Z,99355.06
2022-12-12T22:12:03.961Z,99361.34
2022-12-12T22:14:33.493Z,99362.28
2022-12-12T22:17:02.864Z,99357.19
2022-12-12T22:19:29.808Z,99363.38
2022-12-12T22:21:56.753Z,99358.25
2022-12-12T22:24:23.704Z,99356.59
2022-12-12T22:26:50.757Z,99349.81
2022-12-12T22:29:20.009Z,99347.34
2022-12-12T22:31:49.843Z,99344.03
2022-12-12T22:34:21.621Z,99353.72
2022-12-12T22:36:48.814Z,99351.13
2022-12-12T22:39:23.343Z,99347.81
2022-12-12T22:41:50.803Z,99348.75
2022-12-12T22:44:20.327Z,99343.53
2022-12-12T22:46:50.619Z,99350.53
2022-12-12T22:49:22.481Z,99348.06
2022-12-12T22:51:49.956Z,99340.31
2022-12-12T22:54:17.977Z,99340.44
2022-12-12T22:56:45.356Z,99346.38
2022-12-12T22:59:13.546Z,99343.06
2022-12-12T23:01:41.829Z,99335.22
2022-12-12T23:04:13.157Z,99330.00
2022-12-12T23:06:40.991Z,99323.13
2022-12-12T23:09:21.111Z,99329.44
2022-12-12T23:11:49.495Z,99325.13
2022-12-12T23:14:21.488Z,99326.91
2022-12-12T23:16:50.279Z,99326.91
2022-12-12T23:19:22.314Z,99317.56
2022-12-12T23:21:49.701Z,99321.94
2022-12-12T23:24:16.626Z,99317.69
2022-12-12T23:26:44.362Z,99308.19
2022-12-12T23:29:16.696Z,99309.03
2022-12-12T23:31:44.353Z,99323.03
2022-12-12T23:34:23.754Z,99317.81
2022-12-12T23:36:53.676Z,99324.06
2022-12-12T23:39:22.140Z,99325.00
2022-12-12T23:41:49.446Z,99314.72
2022-12-12T23:44:18.991Z,99308.66
2022-12-12T23:46:46.488Z,99307.94
2022-12-12T23:49:13.289Z,99297.50
2022-12-12T23:51:52.526Z,99295.13
2022-12-12T23:54:32.016Z,99303.09
2022-12-12T23:57:00.096Z,99292.53
2022-12-12T23:59:27.578Z,99287.53
